sensor_id;sensor_type;location;lat;lon;timestamp;temperature;humidity
33328;DHT22;19692;52.998;9.116;2023-03-14T00:01:52;10.10;99.90
33328;DHT22;19692;52.998;9.116;2023-03-14T00:04:18;10.10;99.90
33328;DHT22;19692;52.998;9.116;2023-03-14T00:06:44;10.10;99.90
33328;DHT22;19692;52.998;9.116;2023-03-14T00:09:12;10.10;99.90
33328;DHT22;19692;52.998;9.116;2023-03-14T00:11:38;10.20;99.90
33328;DHT22;19692;52.998;9.116;2023-03-14T00:14:04;10.20;99.90
33328;DHT22;19692;52.998;9.116;2023-03-14T00:16:30;10.30;99.90
33328;DHT22;19692;52.998;9.116;2023-03-14T00:18:57;10.40;99.90
33328;DHT22;19692;52.998;9.116;2023-03-14T00:21:23;10.50;99.90
33328;DHT22;19692;52.998;9.116;2023-03-14T00:23:49;10.50;99.90
33328;DHT22;19692;52.998;9.116;2023-03-14T00:26:18;10.50;99.90
33328;DHT22;19692;52.998;9.116;2023-03-14T00:28:44;10.40;99.90
33328;DHT22;19692;52.998;9.116;2023-03-14T00:31:14;10.40;99.90
33328;DHT22;19692;52.998;9.116;2023-03-14T00:33:41;10.50;99.90
33328;DHT22;19692;52.998;9.116;2023-03-14T00:36:10;10.50;99.90
33328;DHT22;19692;52.998;9.116;2023-03-14T00:38:39;10.60;99.90
33328;DHT22;19692;52.998;9.116;2023-03-14T00:41:07;10.60;99.90
33328;DHT22;19692;52.998;9.116;2023-03-14T00:43:38;10.50;99.90
33328;DHT22;19692;52.998;9.116;2023-03-14T00:46:05;10.50;99.90
33328;DHT22;19692;52.998;9.116;2023-03-14T00:48:31;10.40;99.90
33328;DHT22;19692;52.998;9.116;2023-03-14T00:50:57;10.30;99.90
33328;DHT22;19692;52.998;9.116;2023-03-14T00:53:23;10.20;99.90
33328;DHT22;19692;52.998;9.116;2023-03-14T00:55:49;10.20;99.90
33328;DHT22;19692;52.998;9.116;2023-03-14T00:58:16;10.10;99.90
33328;DHT22;19692;52.998;9.116;2023-03-14T01:00:43;10.10;99.90
33328;DHT22;19692;52.998;9.116;2023-03-14T01:03:10;10.10;99.90
33328;DHT22;19692;52.998;9.116;2023-03-14T01:05:37;10.00;99.90
33328;DHT22;19692;52.998;9.116;2023-03-14T01:08:04;10.10;99.90
33328;DHT22;19692;52.998;9.116;2023-03-14T01:10:30;10.10;99.90
33328;DHT22;19692;52.998;9.116;2023-03-14T01:12:56;10.20;99.90
33328;DHT22;19692;52.998;9.116;2023-03-14T01:15:22;10.20;99.90
33328;DHT22;19692;52.998;9.116;2023-03-14T01:17:47;10.20;99.90
33328;DHT22;19692;52.998;9.116;2023-03-14T01:20:14;10.20;99.90
33328;DHT22;19692;52.998;9.116;2023-03-14T01:22:41;10.10;99.90
33328;DHT22;19692;52.998;9.116;2023-03-14T01:25:10;10.00;99.90
33328;DHT22;19692;52.998;9.116;2023-03-14T01:27:39;10.00;99.90
33328;DHT22;19692;52.998;9.116;2023-03-14T01:30:05;9.90;99.90
33328;DHT22;19692;52.998;9.116;2023-03-14T01:32:33;9.80;99.90
33328;DHT22;19692;52.998;9.116;2023-03-14T01:34:59;9.70;99.90
33328;DHT22;19692;52.998;9.116;2023-03-14T01:37:25;9.60;99.90
33328;DHT22;19692;52.998;9.116;2023-03-14T01:39:51;9.60;99.90
33328;DHT22;19692;52.998;9.116;2023-03-14T01:42:17;9.50;99.90
33328;DHT22;19692;52.998;9.116;2023-03-14T01:44:52;9.40;99.90
33328;DHT22;19692;52.998;9.116;2023-03-14T01:47:19;9.40;99.90
33328;DHT22;19692;52.998;9.116;2023-03-14T01:49:47;9.40;99.90
33328;DHT22;19692;52.998;9.116;2023-03-14T01:52:33;9.40;99.90
33328;DHT22;19692;52.998;9.116;2023-03-14T01:55:08;9.40;99.90
33328;DHT22;19692;52.998;9.116;2023-03-14T01:57:42;9.40;99.90
33328;DHT22;19692;52.998;9.116;2023-03-14T02:00:12;9.40;99.90
33328;DHT22;19692;52.998;9.116;2023-03-14T02:02:49;9.40;99.90
33328;DHT22;19692;52.998;9.116;2023-03-14T02:05:20;9.50;99.90
33328;DHT22;19692;52.998;9.116;2023-03-14T02:07:50;9.60;99.90
33328;DHT22;19692;52.998;9.116;2023-03-14T02:10:20;9.70;99.90
33328;DHT22;19692;52.998;9.116;2023-03-14T02:12:49;9.80;99.90
33328;DHT22;19692;52.998;9.116;2023-03-14T02:15:16;9.90;99.90
33328;DHT22;19692;52.998;9.116;2023-03-14T02:17:43;10.00;99.90
33328;DHT22;19692;52.998;9.116;2023-03-14T02:22:50;10.10;99.90
33328;DHT22;19692;52.998;9.116;2023-03-14T02:27:53;10.10;99.90
33328;DHT22;19692;52.998;9.116;2023-03-14T02:30:26;10.10;99.90
33328;DHT22;19692;52.998;9.116;2023-03-14T02:32:57;10.20;99.90
33328;DHT22;19692;52.998;9.116;2023-03-14T02:35:27;10.20;99.90
33328;DHT22;19692;52.998;9.116;2023-03-14T02:40:28;10.30;99.90
33328;DHT22;19692;52.998;9.116;2023-03-14T02:42:54;10.40;99.90
33328;DHT22;19692;52.998;9.116;2023-03-14T02:47:59;10.40;99.90
33328;DHT22;19692;52.998;9.116;2023-03-14T02:50:31;10.40;99.90
33328;DHT22;19692;52.998;9.116;2023-03-14T02:52:58;10.40;99.90
33328;DHT22;19692;52.998;9.116;2023-03-14T02:55:24;10.40;99.90
33328;DHT22;19692;52.998;9.116;2023-03-14T02:57:52;10.40;99.90
33328;DHT22;19692;52.998;9.116;2023-03-14T03:00:19;10.50;99.90
33328;DHT22;19692;52.998;9.116;2023-03-14T03:02:45;10.60;99.90
33328;DHT22;19692;52.998;9.116;2023-03-14T03:05:11;10.60;99.90
33328;DHT22;19692;52.998;9.116;2023-03-14T03:07:37;10.60;99.90
33328;DHT22;19692;52.998;9.116;2023-03-14T03:10:03;10.60;99.90
33328;DHT22;19692;52.998;9.116;2023-03-14T03:12:30;10.60;99.90
33328;DHT22;19692;52.998;9.116;2023-03-14T03:14:55;10.60;99.90
33328;DHT22;19692;52.998;9.116;2023-03-14T03:17:21;10.60;99.90
33328;DHT22;19692;52.998;9.116;2023-03-14T03:19:47;10.50;99.90
33328;DHT22;19692;52.998;9.116;2023-03-14T03:22:13;10.60;99.90
33328;DHT22;19692;52.998;9.116;2023-03-14T03:24:39;10.50;99.90
33328;DHT22;19692;52.998;9.116;2023-03-14T03:27:04;10.50;99.90
33328;DHT22;19692;52.998;9.116;2023-03-14T03:29:30;10.50;99.90
33328;DHT22;19692;52.998;9.116;2023-03-14T03:31:56;10.50;99.90
33328;DHT22;19692;52.998;9.116;2023-03-14T03:34:22;10.50;99.90
33328;DHT22;19692;52.998;9.116;2023-03-14T03:36:47;10.50;99.90
33328;DHT22;19692;52.998;9.116;2023-03-14T03:39:13;10.50;99.90
33328;DHT22;19692;52.998;9.116;2023-03-14T03:41:41;10.50;99.90
33328;DHT22;19692;52.998;9.116;2023-03-14T03:44:07;10.50;99.90
33328;DHT22;19692;52.998;9.116;2023-03-14T03:46:32;10.50;99.90
33328;DHT22;19692;52.998;9.116;2023-03-14T03:48:59;10.50;99.90
33328;DHT22;19692;52.998;9.116;2023-03-14T03:51:26;10.60;99.90
33328;DHT22;19692;52.998;9.116;2023-03-14T03:53:51;10.60;99.90
33328;DHT22;19692;52.998;9.116;2023-03-14T03:56:17;10.60;99.90
33328;DHT22;19692;52.998;9.116;2023-03-14T03:58:43;10.50;99.90
33328;DHT22;19692;52.998;9.116;2023-03-14T04:01:09;10.40;99.90
33328;DHT22;19692;52.998;9.116;2023-03-14T04:03:36;10.30;99.90
33328;DHT22;19692;52.998;9.116;2023-03-14T04:06:10;10.30;99.90
33328;DHT22;19692;52.998;9.116;2023-03-14T04:08:38;10.20;99.90
33328;DHT22;19692;52.998;9.116;2023-03-14T04:11:04;10.10;99.90
33328;DHT22;19692;52.998;9.116;2023-03-14T04:13:30;10.00;99.90
33328;DHT22;19692;52.998;9.116;2023-03-14T04:15:56;10.00;99.90
33328;DHT22;19692;52.998;9.116;2023-03-14T04:18:23;10.00;99.90
33328;DHT22;19692;52.998;9.116;2023-03-14T04:20:55;9.90;99.90
33328;DHT22;19692;52.998;9.116;2023-03-14T04:23:25;9.90;99.90
33328;DHT22;19692;52.998;9.116;2023-03-14T04:25:51;9.90;99.90
33328;DHT22;19692;52.998;9.116;2023-03-14T04:28:17;9.80;99.90
33328;DHT22;19692;52.998;9.116;2023-03-14T04:30:43;9.80;99.90
33328;DHT22;19692;52.998;9.116;2023-03-14T04:33:09;9.80;99.90
33328;DHT22;19692;52.998;9.116;2023-03-14T04:35:37;9.90;99.90
33328;DHT22;19692;52.998;9.116;2023-03-14T04:38:03;9.80;99.90
33328;DHT22;19692;52.998;9.116;2023-03-14T04:40:28;9.90;99.90
33328;DHT22;19692;52.998;9.116;2023-03-14T04:42:54;9.90;99.90
33328;DHT22;19692;52.998;9.116;2023-03-14T04:45:20;9.80;99.90
33328;DHT22;19692;52.998;9.116;2023-03-14T04:47:45;9.80;99.90
33328;DHT22;19692;52.998;9.116;2023-03-14T04:50:11;9.80;99.90
33328;DHT22;19692;52.998;9.116;2023-03-14T04:52:37;9.80;99.90
33328;DHT22;19692;52.998;9.116;2023-03-14T04:55:03;9.70;99.90
33328;DHT22;19692;52.998;9.116;2023-03-14T04:57:29;9.70;99.90
33328;DHT22;19692;52.998;9.116;2023-03-14T04:59:55;9.70;99.90
33328;DHT22;19692;52.998;9.116;2023-03-14T05:02:20;9.70;99.90
33328;DHT22;19692;52.998;9.116;2023-03-14T05:04:46;9.70;99.90
33328;DHT22;19692;52.998;9.116;2023-03-14T05:07:12;9.80;99.90
33328;DHT22;19692;52.998;9.116;2023-03-14T05:09:37;9.70;99.90
33328;DHT22;19692;52.998;9.116;2023-03-14T05:12:03;9.70;99.90
33328;DHT22;19692;52.998;9.116;2023-03-14T05:14:30;9.70;99.90
33328;DHT22;19692;52.998;9.116;2023-03-14T05:16:55;9.70;99.90
33328;DHT22;19692;52.998;9.116;2023-03-14T05:19:21;9.60;99.90
33328;DHT22;19692;52.998;9.116;2023-03-14T05:21:47;9.50;99.90
33328;DHT22;19692;52.998;9.116;2023-03-14T05:24:13;9.50;99.90
33328;DHT22;19692;52.998;9.116;2023-03-14T05:26:38;9.50;99.90
33328;DHT22;19692;52.998;9.116;2023-03-14T05:29:04;9.50;99.90
33328;DHT22;19692;52.998;9.116;2023-03-14T05:31:30;9.40;99.90
33328;DHT22;19692;52.998;9.116;2023-03-14T05:33:56;9.40;99.90
33328;DHT22;19692;52.998;9.116;2023-03-14T05:36:21;9.40;99.90
33328;DHT22;19692;52.998;9.116;2023-03-14T05:38:47;9.40;99.90
33328;DHT22;19692;52.998;9.116;2023-03-14T05:41:13;9.40;99.90
33328;DHT22;19692;52.998;9.116;2023-03-14T05:43:38;9.40;99.90
33328;DHT22;19692;52.998;9.116;2023-03-14T05:46:05;9.40;99.90
33328;DHT22;19692;52.998;9.116;2023-03-14T05:48:30;9.30;99.90
33328;DHT22;19692;52.998;9.116;2023-03-14T05:50:57;9.30;99.90
33328;DHT22;19692;52.998;9.116;2023-03-14T05:53:24;9.30;99.90
33328;DHT22;19692;52.998;9.116;2023-03-14T05:55:52;9.30;99.90
33328;DHT22;19692;52.998;9.116;2023-03-14T05:58:18;9.20;99.90
33328;DHT22;19692;52.998;9.116;2023-03-14T06:00:44;9.10;99.90
33328;DHT22;19692;52.998;9.116;2023-03-14T06:03:09;9.10;99.90
33328;DHT22;19692;52.998;9.116;2023-03-14T06:05:35;9.10;99.90
33328;DHT22;19692;52.998;9.116;2023-03-14T06:08:01;9.10;99.90
33328;DHT22;19692;52.998;9.116;2023-03-14T06:10:27;9.00;99.90
33328;DHT22;19692;52.998;9.116;2023-03-14T06:12:52;9.00;99.90
33328;DHT22;19692;52.998;9.116;2023-03-14T06:15:19;9.00;99.90
33328;DHT22;19692;52.998;9.116;2023-03-14T06:17:44;9.00;99.90
33328;DHT22;19692;52.998;9.116;2023-03-14T06:20:11;9.00;99.90
33328;DHT22;19692;52.998;9.116;2023-03-14T06:22:37;9.00;99.90
33328;DHT22;19692;52.998;9.116;2023-03-14T06:25:04;9.00;99.90
33328;DHT22;19692;52.998;9.116;2023-03-14T06:27:30;9.00;99.90
33328;DHT22;19692;52.998;9.116;2023-03-14T06:29:56;9.00;99.90
33328;DHT22;19692;52.998;9.116;2023-03-14T06:32:22;9.00;99.90
33328;DHT22;19692;52.998;9.116;2023-03-14T06:34:47;9.00;99.90
33328;DHT22;19692;52.998;9.116;2023-03-14T06:37:13;9.00;99.90
33328;DHT22;19692;52.998;9.116;2023-03-14T06:39:39;9.00;99.90
33328;DHT22;19692;52.998;9.116;2023-03-14T06:42:05;9.00;99.90
33328;DHT22;19692;52.998;9.116;2023-03-14T06:44:31;9.00;99.90
33328;DHT22;19692;52.998;9.116;2023-03-14T06:46:57;9.20;99.90
33328;DHT22;19692;52.998;9.116;2023-03-14T06:49:22;9.10;99.90
33328;DHT22;19692;52.998;9.116;2023-03-14T06:51:48;9.20;99.90
33328;DHT22;19692;52.998;9.116;2023-03-14T06:54:14;9.20;99.90
33328;DHT22;19692;52.998;9.116;2023-03-14T06:56:40;9.30;99.90
33328;DHT22;19692;52.998;9.116;2023-03-14T06:59:05;9.30;99.90
33328;DHT22;19692;52.998;9.116;2023-03-14T07:01:31;9.30;99.90
33328;DHT22;19692;52.998;9.116;2023-03-14T07:03:58;9.40;99.90
33328;DHT22;19692;52.998;9.116;2023-03-14T07:06:24;9.40;99.90
33328;DHT22;19692;52.998;9.116;2023-03-14T07:08:50;9.40;99.90
33328;DHT22;19692;52.998;9.116;2023-03-14T07:11:16;9.50;99.90
33328;DHT22;19692;52.998;9.116;2023-03-14T07:13:42;9.50;99.90
33328;DHT22;19692;52.998;9.116;2023-03-14T07:16:08;9.50;99.90
33328;DHT22;19692;52.998;9.116;2023-03-14T07:18:34;9.60;99.90
33328;DHT22;19692;52.998;9.116;2023-03-14T07:21:00;9.60;99.90
33328;DHT22;19692;52.998;9.116;2023-03-14T07:23:26;9.60;99.90
33328;DHT22;19692;52.998;9.116;2023-03-14T07:25:51;9.60;99.90
33328;DHT22;19692;52.998;9.116;2023-03-14T07:28:19;9.70;99.90
33328;DHT22;19692;52.998;9.116;2023-03-14T07:30:46;9.70;99.90
33328;DHT22;19692;52.998;9.116;2023-03-14T07:33:12;9.70;99.90
33328;DHT22;19692;52.998;9.116;2023-03-14T07:35:38;9.70;99.90
33328;DHT22;19692;52.998;9.116;2023-03-14T07:38:04;9.70;99.90
33328;DHT22;19692;52.998;9.116;2023-03-14T07:40:30;9.80;99.90
33328;DHT22;19692;52.998;9.116;2023-03-14T07:42:55;9.90;99.90
33328;DHT22;19692;52.998;9.116;2023-03-14T07:45:21;9.90;99.90
33328;DHT22;19692;52.998;9.116;2023-03-14T07:47:47;9.90;99.90
33328;DHT22;19692;52.998;9.116;2023-03-14T07:50:12;9.90;99.90
33328;DHT22;19692;52.998;9.116;2023-03-14T07:52:38;10.00;99.90
33328;DHT22;19692;52.998;9.116;2023-03-14T07:55:05;10.10;99.90
33328;DHT22;19692;52.998;9.116;2023-03-14T07:57:31;10.20;99.90
33328;DHT22;19692;52.998;9.116;2023-03-14T07:59:56;10.40;99.90
33328;DHT22;19692;52.998;9.116;2023-03-14T08:02:22;10.50;99.90
33328;DHT22;19692;52.998;9.116;2023-03-14T08:04:49;10.60;99.90
33328;DHT22;19692;52.998;9.116;2023-03-14T08:07:15;10.80;99.90
33328;DHT22;19692;52.998;9.116;2023-03-14T08:09:41;10.90;99.90
33328;DHT22;19692;52.998;9.116;2023-03-14T08:12:07;11.00;99.90
33328;DHT22;19692;52.998;9.116;2023-03-14T08:14:33;11.00;99.90
33328;DHT22;19692;52.998;9.116;2023-03-14T08:16:59;11.10;99.90
33328;DHT22;19692;52.998;9.116;2023-03-14T08:19:25;11.20;99.90
33328;DHT22;19692;52.998;9.116;2023-03-14T08:21:50;11.30;99.90
33328;DHT22;19692;52.998;9.116;2023-03-14T08:24:16;11.30;99.90
33328;DHT22;19692;52.998;9.116;2023-03-14T08:26:42;11.20;99.90
33328;DHT22;19692;52.998;9.116;2023-03-14T08:29:08;11.20;99.90
33328;DHT22;19692;52.998;9.116;2023-03-14T08:31:34;11.10;99.90
33328;DHT22;19692;52.998;9.116;2023-03-14T08:34:01;11.10;99.90
33328;DHT22;19692;52.998;9.116;2023-03-14T08:36:28;11.20;99.90
33328;DHT22;19692;52.998;9.116;2023-03-14T08:38:53;11.20;99.90
33328;DHT22;19692;52.998;9.116;2023-03-14T08:41:20;11.20;99.90
33328;DHT22;19692;52.998;9.116;2023-03-14T08:43:45;11.20;99.90
33328;DHT22;19692;52.998;9.116;2023-03-14T08:46:11;11.20;99.90
33328;DHT22;19692;52.998;9.116;2023-03-14T08:48:37;11.10;99.90
33328;DHT22;19692;52.998;9.116;2023-03-14T08:51:11;11.20;99.90
33328;DHT22;19692;52.998;9.116;2023-03-14T08:53:39;11.20;99.90
33328;DHT22;19692;52.998;9.116;2023-03-14T08:56:06;11.30;99.90
33328;DHT22;19692;52.998;9.116;2023-03-14T08:58:32;11.30;99.90
33328;DHT22;19692;52.998;9.116;2023-03-14T09:00:58;11.20;99.90
33328;DHT22;19692;52.998;9.116;2023-03-14T09:03:25;11.00;99.90
33328;DHT22;19692;52.998;9.116;2023-03-14T09:05:51;10.90;99.90
33328;DHT22;19692;52.998;9.116;2023-03-14T09:08:17;10.80;99.90
33328;DHT22;19692;52.998;9.116;2023-03-14T09:10:43;10.60;99.90
33328;DHT22;19692;52.998;9.116;2023-03-14T09:13:09;10.50;99.90
33328;DHT22;19692;52.998;9.116;2023-03-14T09:15:34;10.30;99.90
33328;DHT22;19692;52.998;9.116;2023-03-14T09:18:00;10.20;99.90
33328;DHT22;19692;52.998;9.116;2023-03-14T09:20:26;10.10;99.90
33328;DHT22;19692;52.998;9.116;2023-03-14T09:22:52;10.00;99.90
33328;DHT22;19692;52.998;9.116;2023-03-14T09:25:18;9.80;99.90
33328;DHT22;19692;52.998;9.116;2023-03-14T09:27:43;9.80;99.90
33328;DHT22;19692;52.998;9.116;2023-03-14T09:30:10;9.70;99.90
33328;DHT22;19692;52.998;9.116;2023-03-14T09:32:36;9.80;99.90
33328;DHT22;19692;52.998;9.116;2023-03-14T09:35:02;9.80;99.90
33328;DHT22;19692;52.998;9.116;2023-03-14T09:37:28;9.80;99.90
33328;DHT22;19692;52.998;9.116;2023-03-14T09:39:54;9.80;99.90
33328;DHT22;19692;52.998;9.116;2023-03-14T09:42:25;9.80;99.90
33328;DHT22;19692;52.998;9.116;2023-03-14T09:44:59;9.80;99.90
33328;DHT22;19692;52.998;9.116;2023-03-14T09:47:28;8.80;99.90
33328;DHT22;19692;52.998;9.116;2023-03-14T09:49:54;7.60;99.90
33328;DHT22;19692;52.998;9.116;2023-03-14T09:52:32;7.10;99.90
33328;DHT22;19692;52.998;9.116;2023-03-14T09:55:06;6.70;99.90
33328;DHT22;19692;52.998;9.116;2023-03-14T09:57:37;6.20;99.90
33328;DHT22;19692;52.998;9.116;2023-03-14T10:00:22;6.20;99.90
33328;DHT22;19692;52.998;9.116;2023-03-14T10:05:41;6.00;99.90
33328;DHT22;19692;52.998;9.116;2023-03-14T10:08:11;6.00;99.90
33328;DHT22;19692;52.998;9.116;2023-03-14T10:10:37;5.90;99.90
33328;DHT22;19692;52.998;9.116;2023-03-14T10:13:17;5.80;99.90
33328;DHT22;19692;52.998;9.116;2023-03-14T10:15:51;5.70;99.90
33328;DHT22;19692;52.998;9.116;2023-03-14T10:18:18;5.60;99.90
33328;DHT22;19692;52.998;9.116;2023-03-14T10:20:47;5.50;99.90
33328;DHT22;19692;52.998;9.116;2023-03-14T10:25:45;5.20;99.90
33328;DHT22;19692;52.998;9.116;2023-03-14T10:28:30;5.10;99.90
33328;DHT22;19692;52.998;9.116;2023-03-14T10:30:59;4.90;99.90
33328;DHT22;19692;52.998;9.116;2023-03-14T10:33:34;4.70;99.90
33328;DHT22;19692;52.998;9.116;2023-03-14T10:36:19;4.40;99.90
33328;DHT22;19692;52.998;9.116;2023-03-14T10:38:47;4.50;99.90
33328;DHT22;19692;52.998;9.116;2023-03-14T10:41:20;4.30;99.90
33328;DHT22;19692;52.998;9.116;2023-03-14T10:43:52;4.20;99.90
33328;DHT22;19692;52.998;9.116;2023-03-14T10:46:20;4.10;99.90
33328;DHT22;19692;52.998;9.116;2023-03-14T10:48:46;4.10;99.90
33328;DHT22;19692;52.998;9.116;2023-03-14T10:54:00;4.00;99.90
33328;DHT22;19692;52.998;9.116;2023-03-14T10:56:34;3.90;99.90
33328;DHT22;19692;52.998;9.116;2023-03-14T10:59:02;4.00;99.90
33328;DHT22;19692;52.998;9.116;2023-03-14T11:01:38;3.90;99.90
33328;DHT22;19692;52.998;9.116;2023-03-14T11:09:32;4.00;99.90
33328;DHT22;19692;52.998;9.116;2023-03-14T11:21:55;3.80;99.90
33328;DHT22;19692;52.998;9.116;2023-03-14T11:24:41;3.90;99.90
33328;DHT22;19692;52.998;9.116;2023-03-14T11:27:18;3.90;99.90
33328;DHT22;19692;52.998;9.116;2023-03-14T11:33:03;3.90;99.90
33328;DHT22;19692;52.998;9.116;2023-03-14T11:38:32;4.10;99.90
33328;DHT22;19692;52.998;9.116;2023-03-14T11:41:00;4.10;99.90
33328;DHT22;19692;52.998;9.116;2023-03-14T11:43:32;4.10;99.90
33328;DHT22;19692;52.998;9.116;2023-03-14T11:46:18;4.20;99.90
33328;DHT22;19692;52.998;9.116;2023-03-14T11:49:08;4.20;99.90
33328;DHT22;19692;52.998;9.116;2023-03-14T11:51:41;4.20;99.90
33328;DHT22;19692;52.998;9.116;2023-03-14T11:54:24;4.30;99.90
33328;DHT22;19692;52.998;9.116;2023-03-14T11:56:57;4.40;99.90
33328;DHT22;19692;52.998;9.116;2023-03-14T12:12:01;4.70;99.90
33328;DHT22;19692;52.998;9.116;2023-03-14T12:14:26;4.80;99.90
33328;DHT22;19692;52.998;9.116;2023-03-14T12:16:59;4.90;99.90
33328;DHT22;19692;52.998;9.116;2023-03-14T12:19:39;5.00;99.90
33328;DHT22;19692;52.998;9.116;2023-03-14T12:22:18;5.20;99.90
33328;DHT22;19692;52.998;9.116;2023-03-14T12:25:06;5.30;99.90
33328;DHT22;19692;52.998;9.116;2023-03-14T12:30:23;5.30;99.90
33328;DHT22;19692;52.998;9.116;2023-03-14T12:35:48;5.30;99.90
33328;DHT22;19692;52.998;9.116;2023-03-14T12:41:08;5.30;99.90
33328;DHT22;19692;52.998;9.116;2023-03-14T12:43:40;5.40;99.90
33328;DHT22;19692;52.998;9.116;2023-03-14T12:46:23;5.50;99.90
33328;DHT22;19692;52.998;9.116;2023-03-14T12:54:43;6.10;99.90
33328;DHT22;19692;52.998;9.116;2023-03-14T12:57:43;5.90;99.90
33328;DHT22;19692;52.998;9.116;2023-03-14T13:00:20;5.70;99.90
33328;DHT22;19692;52.998;9.116;2023-03-14T13:02:48;5.80;99.90
33328;DHT22;19692;52.998;9.116;2023-03-14T13:05:21;5.80;99.90
33328;DHT22;19692;52.998;9.116;2023-03-14T13:10:22;6.10;99.90
33328;DHT22;19692;52.998;9.116;2023-03-14T13:15:41;6.00;99.90
33328;DHT22;19692;52.998;9.116;2023-03-14T13:18:18;6.00;99.90
33328;DHT22;19692;52.998;9.116;2023-03-14T13:20:58;6.20;99.90
33328;DHT22;19692;52.998;9.116;2023-03-14T13:23:30;6.50;99.90
33328;DHT22;19692;52.998;9.116;2023-03-14T13:25:58;6.90;99.90
33328;DHT22;19692;52.998;9.116;2023-03-14T13:28:25;6.90;99.90
33328;DHT22;19692;52.998;9.116;2023-03-14T13:30:56;6.90;99.90
33328;DHT22;19692;52.998;9.116;2023-03-14T13:33:23;6.60;99.90
33328;DHT22;19692;52.998;9.116;2023-03-14T13:35:58;6.50;99.90
33328;DHT22;19692;52.998;9.116;2023-03-14T13:38:30;6.60;99.90
33328;DHT22;19692;52.998;9.116;2023-03-14T13:40:59;6.50;99.90
33328;DHT22;19692;52.998;9.116;2023-03-14T13:43:29;6.30;99.90
33328;DHT22;19692;52.998;9.116;2023-03-14T13:48:44;5.80;99.90
33328;DHT22;19692;52.998;9.116;2023-03-14T13:51:13;5.80;99.90
33328;DHT22;19692;52.998;9.116;2023-03-14T13:53:46;5.70;99.90
33328;DHT22;19692;52.998;9.116;2023-03-14T13:56:34;5.60;99.90
33328;DHT22;19692;52.998;9.116;2023-03-14T13:59:00;5.60;99.90
33328;DHT22;19692;52.998;9.116;2023-03-14T14:01:31;5.70;99.90
33328;DHT22;19692;52.998;9.116;2023-03-14T14:04:06;5.60;99.90
33328;DHT22;19692;52.998;9.116;2023-03-14T14:06:45;5.60;99.90
33328;DHT22;19692;52.998;9.116;2023-03-14T14:09:19;5.50;99.90
33328;DHT22;19692;52.998;9.116;2023-03-14T14:11:54;5.50;99.90
33328;DHT22;19692;52.998;9.116;2023-03-14T14:14:25;5.50;99.90
33328;DHT22;19692;52.998;9.116;2023-03-14T14:16:59;5.60;99.90
33328;DHT22;19692;52.998;9.116;2023-03-14T14:19:28;6.00;99.90
33328;DHT22;19692;52.998;9.116;2023-03-14T14:21:56;6.60;99.90
33328;DHT22;19692;52.998;9.116;2023-03-14T14:24:24;7.10;99.90
33328;DHT22;19692;52.998;9.116;2023-03-14T14:26:59;7.30;99.90
33328;DHT22;19692;52.998;9.116;2023-03-14T14:29:32;7.00;99.90
33328;DHT22;19692;52.998;9.116;2023-03-14T14:40:00;6.50;99.90
33328;DHT22;19692;52.998;9.116;2023-03-14T14:42:32;6.40;99.90
33328;DHT22;19692;52.998;9.116;2023-03-14T14:44:59;6.10;99.90
33328;DHT22;19692;52.998;9.116;2023-03-14T14:47:29;6.00;99.90
33328;DHT22;19692;52.998;9.116;2023-03-14T14:49:59;6.00;99.90
33328;DHT22;19692;52.998;9.116;2023-03-14T14:52:43;5.90;99.90
33328;DHT22;19692;52.998;9.116;2023-03-14T14:55:17;6.10;99.90
33328;DHT22;19692;52.998;9.116;2023-03-14T14:57:52;6.60;99.90
33328;DHT22;19692;52.998;9.116;2023-03-14T15:00:22;6.70;99.90
33328;DHT22;19692;52.998;9.116;2023-03-14T15:02:52;6.90;99.90
33328;DHT22;19692;52.998;9.116;2023-03-14T15:05:27;7.20;99.90
33328;DHT22;19692;52.998;9.116;2023-03-14T15:07:55;7.40;99.90
33328;DHT22;19692;52.998;9.116;2023-03-14T15:10:23;6.90;99.90
33328;DHT22;19692;52.998;9.116;2023-03-14T15:12:49;6.80;99.90
33328;DHT22;19692;52.998;9.116;2023-03-14T15:15:16;6.60;99.90
33328;DHT22;19692;52.998;9.116;2023-03-14T15:17:43;6.50;99.90
33328;DHT22;19692;52.998;9.116;2023-03-14T15:20:14;6.60;99.90
33328;DHT22;19692;52.998;9.116;2023-03-14T15:22:41;6.60;99.90
33328;DHT22;19692;52.998;9.116;2023-03-14T15:25:08;6.40;99.90
33328;DHT22;19692;52.998;9.116;2023-03-14T15:27:35;6.10;99.90
33328;DHT22;19692;52.998;9.116;2023-03-14T15:30:01;5.90;99.90
33328;DHT22;19692;52.998;9.116;2023-03-14T15:32:27;5.80;99.90
33328;DHT22;19692;52.998;9.116;2023-03-14T15:34:54;5.70;99.90
33328;DHT22;19692;52.998;9.116;2023-03-14T15:37:20;5.60;99.90
33328;DHT22;19692;52.998;9.116;2023-03-14T15:39:46;5.70;99.90
33328;DHT22;19692;52.998;9.116;2023-03-14T15:42:12;5.70;99.90
33328;DHT22;19692;52.998;9.116;2023-03-14T15:44:38;5.70;99.90
33328;DHT22;19692;52.998;9.116;2023-03-14T15:47:09;5.70;99.90
33328;DHT22;19692;52.998;9.116;2023-03-14T15:49:35;5.80;99.90
33328;DHT22;19692;52.998;9.116;2023-03-14T15:52:02;5.80;99.90
33328;DHT22;19692;52.998;9.116;2023-03-14T15:54:28;5.80;99.90
33328;DHT22;19692;52.998;9.116;2023-03-14T15:56:56;5.80;99.90
33328;DHT22;19692;52.998;9.116;2023-03-14T15:59:23;5.60;99.90
33328;DHT22;19692;52.998;9.116;2023-03-14T16:01:49;5.60;99.90
33328;DHT22;19692;52.998;9.116;2023-03-14T16:04:15;5.60;99.90
33328;DHT22;19692;52.998;9.116;2023-03-14T16:06:42;5.60;99.90
33328;DHT22;19692;52.998;9.116;2023-03-14T16:09:11;5.70;99.90
33328;DHT22;19692;52.998;9.116;2023-03-14T16:11:37;5.80;99.90
33328;DHT22;19692;52.998;9.116;2023-03-14T16:14:03;5.80;99.90
33328;DHT22;19692;52.998;9.116;2023-03-14T16:16:28;5.70;99.90
33328;DHT22;19692;52.998;9.116;2023-03-14T16:18:54;5.80;99.90
33328;DHT22;19692;52.998;9.116;2023-03-14T16:21:21;6.00;99.90
33328;DHT22;19692;52.998;9.116;2023-03-14T16:23:47;6.10;99.90
33328;DHT22;19692;52.998;9.116;2023-03-14T16:26:15;6.10;99.90
33328;DHT22;19692;52.998;9.116;2023-03-14T16:28:42;5.90;99.90
33328;DHT22;19692;52.998;9.116;2023-03-14T16:31:11;5.80;99.90
33328;DHT22;19692;52.998;9.116;2023-03-14T16:33:39;5.60;99.90
33328;DHT22;19692;52.998;9.116;2023-03-14T16:36:06;5.30;99.90
33328;DHT22;19692;52.998;9.116;2023-03-14T16:38:34;5.20;99.90
33328;DHT22;19692;52.998;9.116;2023-03-14T16:41:06;5.10;99.90
33328;DHT22;19692;52.998;9.116;2023-03-14T16:43:34;5.10;99.90
33328;DHT22;19692;52.998;9.116;2023-03-14T16:46:04;5.10;99.90
33328;DHT22;19692;52.998;9.116;2023-03-14T16:48:32;5.10;99.90
33328;DHT22;19692;52.998;9.116;2023-03-14T16:50:57;5.10;99.90
33328;DHT22;19692;52.998;9.116;2023-03-14T16:53:24;5.20;99.90
33328;DHT22;19692;52.998;9.116;2023-03-14T16:55:53;5.10;99.90
33328;DHT22;19692;52.998;9.116;2023-03-14T16:58:19;5.20;99.90
33328;DHT22;19692;52.998;9.116;2023-03-14T17:00:46;5.10;99.90
33328;DHT22;19692;52.998;9.116;2023-03-14T17:03:12;5.10;99.90
33328;DHT22;19692;52.998;9.116;2023-03-14T17:05:44;5.10;99.90
33328;DHT22;19692;52.998;9.116;2023-03-14T17:08:11;5.10;99.90
33328;DHT22;19692;52.998;9.116;2023-03-14T17:10:37;5.00;99.90
33328;DHT22;19692;52.998;9.116;2023-03-14T17:13:03;4.90;99.90